Shoals, Georgia
Current Conditions -  °F | °C
As of 9:55 AM on Monday 24 Nov 2014 (Local Time) from KOKZ Reporting Station
Light Rain Light Rain  
Wind Chill: 65°   Ceiling: 300
Heat Index: 65°   Visibility: 4mi
Dew Point: 65°   Wind: 0mph
Humidity: 100%   Direction: NA
Pressure: 29.86"   Gusts: NA
Location:  33.1878°N, 82.6701°W
Report Text: KOKZ 241455Z AUTO 00000KT 4SM -RA OVC003 19/19 A2986 RMK AO2 LTG DSNT E T01860186
Loading
Personal Weather Stations






























Interactive Weather Map New forecast layout! Learn more

10-Day Weather Forecast

Advertisements
Track Severe Weather on mobile